Portada
METAR-TAF:

METAR-TAF

Aeroports :

Accra, Ghana

latitud: 05-36N, longitud: 000-10W, altitud: 68 m

Observació

L'informe es va fer fa 34 minuts, a les 15:00 UTC
Vent 12 kt del Sud
Temperatura 31°C
Humitat 71%
Pressió 1008 hPa
Visibilitat 10 km o més
Escasses núvols a una alçada de 3000 ft, Cumulonimbus.

METAR: DGAA 101500Z 18012KT 9999 FEW030CB 31/25 Q1008 NOSIG

Hora: 15:34 (15:34 UTC)

Pronòstic

L'informe es va fer fa 4 hores i 34 minuts, a les 11:00 UTC
Pronòstic vàlid del 10 a les 12 UTC al 11 a les 18 UTC
Vent 11 kt del Sud
Visibilitat 10 km o més
Núvols disperses a una alçada de 2800 ft
Probabilitat 30%
l' 10 a les 15 UTC al 10 a les 19 UTC
Escasses núvols a una alçada de 3000 ft, Cumulonimbus.
Evolucionant progressivament
entre 10 i 0/ UTC
Vent 6 kt del Oest
Temporalment
l' 11 a les 06 UTC al 11 a les 10 UTC
Visibilitat: 5000 m
boirina

TAF: DGAA 101100Z 1012/1118 19011KT 9999 SCT028 PROB30 1015/1019 FEW030CB BECMG 100/1102 27006KT TEMPO 1106/1110 5000 BR NSC

Observacions i pronòstics meteorològics de més de 4000 aeroports (METAR i TAF).

Les estacions disponibles són els punts grocs i vermells al mapa.

Posi el ratolí al punt desitjat per veure el nom de l'estació.

Feu clic per veure les observacions i els pronòstics meteorològics.

Per canviar el mapa: feu clic els botons verds amb una creu de color negre per apropar; al botó verd amb un guió per allunyar la imatge; o en les fletxes verdes per a mapes adjacents.


METAR-TAF: